Time;durP1;ratioP1;P1;durP2;ratioP2;P2;SDS_P1;SDS_P2;PMS_P1;PMS_P2;Temp;Humidity;BMP_temperature;BMP_pressure;BME280_temperature;BME280_humidity;BME280_pressure;Samples;Min_cycle;Max_cycle;Signal;HPM_P1;HPM_P2
2023/04/20 00:01:52;;;;;;;;;;;8.00;62.00;;;3.19;100.00;95302.78;5005284;28;19909;-51
2023/04/20 00:04:18;;;;;;;;;;;7.90;62.00;;;3.18;100.00;95297.75;4991034;22;19922;-47
2023/04/20 00:06:44;;;;;;;;;;;8.00;62.00;;;3.18;100.00;95288.03;4971151;28;19936;-54
2023/04/20 00:09:14;;;;;;;;;;;8.00;62.60;;;3.22;100.00;95283.91;4967891;28;20284;-52
2023/04/20 00:11:40;;;;;;;;;;;8.00;62.10;;;3.23;100.00;95282.91;4970358;28;20397;-52
2023/04/20 00:14:06;;;;;;;;;;;8.00;62.10;;;3.22;100.00;95275.22;4964340;28;19909;-49
2023/04/20 00:16:32;;;;;;;;;;;8.00;62.10;;;3.12;100.00;95265.22;4968667;28;19920;-53
2023/04/20 00:19:01;;;;;;;;;;;8.00;62.10;;;3.19;100.00;95265.13;4970488;28;19909;-53
2023/04/20 00:21:26;;;;;;;;;;;8.00;62.10;;;3.21;100.00;95268.34;4965967;28;19910;-55
2023/04/20 00:23:52;;;;;;;;;;;8.00;62.10;;;3.21;100.00;95263.88;4966982;28;19979;-48
2023/04/20 00:26:20;;;;;;;;;;;8.00;62.10;;;3.19;100.00;95265.13;4966539;28;19984;-52
2023/04/20 00:28:45;;;;;;;;;;;8.00;62.20;;;3.13;100.00;95256.28;4969114;28;19913;-52
2023/04/20 00:31:11;;;;;;;;;;;8.10;62.30;;;3.15;100.00;95250.81;4972907;28;19920;-50
2023/04/20 00:33:37;;;;;;;;;;;8.00;62.20;;;3.16;100.00;95253.22;4970215;28;20379;-49
2023/04/20 00:36:03;;;;;;;;;;;8.00;62.30;;;3.12;100.00;95246.81;4970019;28;19914;-48
2023/04/20 00:38:29;;;;;;;;;;;8.00;62.30;;;3.16;100.00;95241.88;4968480;28;19909;-52
2023/04/20 00:40:55;;;;;;;;;;;8.00;62.30;;;3.20;100.00;95233.34;4968156;28;19909;-51
2023/04/20 00:43:21;;;;;;;;;;;8.00;62.30;;;3.12;100.00;95227.59;4966616;28;19913;-52
2023/04/20 00:45:47;;;;;;;;;;;8.00;62.30;;;3.07;100.00;95219.56;4965943;28;19933;-47
2023/04/20 00:48:13;;;;;;;;;;;8.00;62.30;;;3.13;100.00;95216.03;4966793;28;20059;-57
2023/04/20 00:50:40;;;;;;;;;;;8.00;62.30;;;3.14;100.00;95212.38;4969222;28;20279;-54
2023/04/20 00:53:07;;;;;;;;;;;8.00;62.30;;;3.14;100.00;95215.81;4968963;28;19913;-54
2023/04/20 00:55:37;;;;;;;;;;;8.00;62.40;;;3.20;100.00;95214.91;4966933;28;19960;-51
2023/04/20 00:58:03;;;;;;;;;;;8.00;62.40;;;3.10;100.00;95213.84;4969871;28;19956;-51
2023/04/20 01:00:29;;;;;;;;;;;8.00;62.40;;;3.08;100.00;95208.81;4975137;28;20315;-54
2023/04/20 01:02:55;;;;;;;;;;;8.00;62.50;;;3.14;100.00;95196.59;4969021;28;19933;-50
2023/04/20 01:05:21;;;;;;;;;;;8.00;62.50;;;3.17;100.00;95204.03;4969677;28;20454;-51
2023/04/20 01:07:48;;;;;;;;;;;8.00;62.40;;;3.21;100.00;95194.66;4971322;28;19917;-53
2023/04/20 01:10:14;;;;;;;;;;;8.00;62.50;;;3.22;100.00;95193.59;4967287;28;19911;-51
2023/04/20 01:12:40;;;;;;;;;;;8.00;62.50;;;3.23;100.00;95190.75;4971275;28;19916;-53
2023/04/20 01:15:08;;;;;;;;;;;8.00;62.50;;;3.21;100.00;95192.81;4973035;28;20261;-53
2023/04/20 01:17:38;;;;;;;;;;;8.00;62.50;;;3.24;100.00;95191.56;4971253;28;20356;-50
2023/04/20 01:20:11;;;;;;;;;;;8.00;62.60;;;3.17;100.00;95181.13;4971730;28;19913;-52
2023/04/20 01:22:49;;;;;;;;;;;8.00;62.60;;;3.23;100.00;95179.44;4969117;28;19913;-54
2023/04/20 01:25:17;;;;;;;;;;;8.00;62.60;;;3.15;100.00;95171.88;4975203;28;19924;-54
2023/04/20 01:27:43;;;;;;;;;;;8.10;62.60;;;3.19;100.00;95173.81;4968870;28;19918;-55
2023/04/20 01:30:10;;;;;;;;;;;8.00;62.60;;;3.29;100.00;95167.16;4976539;28;19944;-50
2023/04/20 01:32:38;;;;;;;;;;;8.00;62.60;;;3.29;100.00;95156.63;4972031;28;19910;-51
2023/04/20 01:35:05;;;;;;;;;;;8.10;62.70;;;3.25;100.00;95154.47;4972093;28;20004;-48
2023/04/20 01:37:31;;;;;;;;;;;8.10;62.70;;;3.24;100.00;95152.88;4968426;28;19917;-50
2023/04/20 01:39:57;;;;;;;;;;;8.10;62.60;;;3.26;100.00;95150.03;4974313;28;19933;-54
2023/04/20 01:42:23;;;;;;;;;;;8.00;62.60;;;3.25;100.00;95148.41;4971664;28;19917;-52
2023/04/20 01:44:49;;;;;;;;;;;8.10;62.70;;;3.23;100.00;95151.28;4966620;28;19913;-48
2023/04/20 01:47:15;;;;;;;;;;;8.10;62.70;;;3.23;100.00;95159.16;4967175;28;19913;-49
2023/04/20 01:49:41;;;;;;;;;;;8.10;62.70;;;3.31;100.00;95150.13;4969228;28;20386;-50
2023/04/20 01:52:08;;;;;;;;;;;8.10;62.70;;;3.28;100.00;95140.03;4975610;28;19917;-53
2023/04/20 01:54:33;;;;;;;;;;;8.10;62.90;;;3.23;100.00;95130.22;4970067;28;19916;-55
2023/04/20 01:56:59;;;;;;;;;;;8.10;62.70;;;3.20;100.00;95124.63;4969978;28;20295;-51
2023/04/20 01:59:25;;;;;;;;;;;8.10;62.80;;;3.27;100.00;95121.88;4970039;28;20004;-50
2023/04/20 02:01:51;;;;;;;;;;;8.10;62.80;;;3.32;100.00;95125.41;4981834;28;19943;-55
2023/04/20 02:04:17;;;;;;;;;;;8.10;62.90;;;3.31;100.00;95133.53;4973654;28;20007;-55
2023/04/20 02:06:42;;;;;;;;;;;8.10;62.80;;;3.34;100.00;95128.59;4969710;28;20368;-56
2023/04/20 02:09:09;;;;;;;;;;;8.10;62.80;;;3.34;100.00;95128.59;4969977;28;19917;-55
2023/04/20 02:11:35;;;;;;;;;;;8.10;62.90;;;3.34;100.00;95120.69;4971960;28;19920;-52
2023/04/20 02:14:00;;;;;;;;;;;8.10;62.80;;;3.34;100.00;95117.28;4971371;28;19918;-53
2023/04/20 02:16:28;;;;;;;;;;;8.10;62.70;;;3.36;100.00;95112.59;4968554;28;19991;-55
2023/04/20 02:18:55;;;;;;;;;;;8.20;62.90;;;3.35;100.00;95110.97;4969315;28;19964;-49
2023/04/20 02:21:21;;;;;;;;;;;8.20;62.80;;;3.24;100.00;95107.31;4969874;28;19914;-48
2023/04/20 02:23:47;;;;;;;;;;;8.20;62.80;;;3.27;100.00;95109.50;4974232;28;20335;-54
2023/04/20 02:26:13;;;;;;;;;;;8.10;62.70;;;3.29;100.00;95102.19;4972413;28;19909;-50
2023/04/20 02:28:38;;;;;;;;;;;8.10;62.80;;;3.30;100.00;95098.50;4968673;28;19956;-48
2023/04/20 02:31:04;;;;;;;;;;;8.10;62.80;;;3.32;100.00;95099.09;4967709;28;20362;-51
2023/04/20 02:33:31;;;;;;;;;;;8.10;62.80;;;3.34;100.00;95093.56;4971679;28;19920;-51
2023/04/20 02:35:56;;;;;;;;;;;8.10;62.80;;;3.33;100.00;95092.78;4971358;28;20003;-53
2023/04/20 02:38:22;;;;;;;;;;;8.20;63.00;;;3.34;100.00;95081.22;4967864;28;19968;-53
2023/04/20 02:40:48;;;;;;;;;;;8.10;62.90;;;3.34;100.00;95085.69;4974616;28;20307;-50
2023/04/20 02:43:14;;;;;;;;;;;8.10;62.90;;;3.37;100.00;95072.06;4970471;28;19909;-53
2023/04/20 02:45:40;;;;;;;;;;;8.10;62.90;;;3.34;100.00;95068.03;4972519;28;19910;-55
2023/04/20 02:48:06;;;;;;;;;;;8.20;63.80;;;3.38;100.00;95066.53;4964787;28;20048;-52
2023/04/20 02:50:31;;;;;;;;;;;8.20;63.00;;;3.38;100.00;95065.75;4967369;28;19989;-52
2023/04/20 02:52:57;;;;;;;;;;;8.20;63.00;;;3.39;100.00;95059.47;4966107;28;19921;-48
2023/04/20 02:55:23;;;;;;;;;;;8.20;63.10;;;3.36;100.00;95062.56;4966724;28;20380;-52
2023/04/20 02:57:49;;;;;;;;;;;8.20;63.00;;;3.38;100.00;95057.84;4966748;28;20000;-52
2023/04/20 03:00:15;;;;;;;;;;;8.20;63.10;;;3.28;100.00;95057.63;4970354;28;20410;-52
2023/04/20 03:02:41;;;;;;;;;;;8.20;63.00;;;3.31;100.00;95062.44;4967873;28;21134;-52
2023/04/20 03:05:07;;;;;;;;;;;8.20;63.10;;;3.31;100.00;95065.88;4973631;28;20343;-48
2023/04/20 03:07:33;;;;;;;;;;;8.20;63.00;;;3.37;100.00;95072.06;4965581;28;19940;-50
2023/04/20 03:09:59;;;;;;;;;;;8.20;63.10;;;3.41;100.00;95070.53;4968233;28;19922;-48
2023/04/20 03:12:25;;;;;;;;;;;8.20;63.10;;;3.43;100.00;95064.03;4971136;28;19980;-55
2023/04/20 03:14:51;;;;;;;;;;;8.20;63.20;;;3.41;100.00;95060.00;4971328;28;19976;-55
2023/04/20 03:17:17;;;;;;;;;;;8.20;63.20;;;3.42;100.00;95054.53;4968706;28;19914;-49
2023/04/20 03:19:43;;;;;;;;;;;8.20;63.10;;;3.42;100.00;95051.09;4967747;28;19917;-48
2023/04/20 03:22:09;;;;;;;;;;;8.20;63.10;;;3.33;100.00;95042.75;4970357;28;19963;-49
2023/04/20 03:24:35;;;;;;;;;;;8.20;63.10;;;3.33;100.00;95050.66;4965664;28;19997;-48
2023/04/20 03:27:00;;;;;;;;;;;8.20;63.10;;;3.33;100.00;95040.13;4970797;28;19921;-50
2023/04/20 03:29:26;;;;;;;;;;;8.20;63.10;;;3.27;100.00;95048.16;4972048;28;19960;-54
2023/04/20 03:31:52;;;;;;;;;;;8.20;63.10;;;3.26;100.00;95050.00;4963362;28;19920;-49
2023/04/20 03:34:17;;;;;;;;;;;8.20;63.10;;;3.31;100.00;95052.72;4969289;28;20004;-50
2023/04/20 03:36:43;;;;;;;;;;;8.20;63.10;;;3.37;100.00;95061.53;4966074;28;19914;-51
2023/04/20 03:39:09;;;;;;;;;;;8.20;63.10;;;3.42;100.00;95048.47;4967847;28;19967;-51
2023/04/20 03:41:35;;;;;;;;;;;8.20;63.20;;;3.44;100.00;95047.19;4969589;28;20067;-57
2023/04/20 03:44:00;;;;;;;;;;;8.20;63.20;;;3.41;100.00;95046.84;4969535;28;19921;-53
2023/04/20 03:46:26;;;;;;;;;;;8.20;63.20;;;3.37;100.00;95046.53;4969718;28;19918;-52
2023/04/20 03:48:52;;;;;;;;;;;8.20;63.20;;;3.31;100.00;95042.19;4968399;28;19910;-50
2023/04/20 03:51:17;;;;;;;;;;;8.20;63.20;;;3.33;100.00;95032.22;4966145;28;20361;-49
2023/04/20 03:53:43;;;;;;;;;;;8.20;63.20;;;3.38;100.00;95027.03;4971296;28;19918;-57
2023/04/20 03:56:11;;;;;;;;;;;8.20;63.20;;;3.34;100.00;95035.66;4968334;28;28078;-51
2023/04/20 03:58:37;;;;;;;;;;;8.20;63.20;;;3.40;100.00;95032.88;4970684;28;20007;-54
2023/04/20 04:01:06;;;;;;;;;;;8.20;63.20;;;3.43;100.00;95035.06;4957478;28;19957;-51
2023/04/20 04:03:34;;;;;;;;;;;8.20;63.20;;;3.47;100.00;95032.75;4964236;28;19973;-48
2023/04/20 04:06:00;;;;;;;;;;;8.20;63.30;;;3.48;100.00;95037.00;4967868;28;19922;-53
2023/04/20 04:08:26;;;;;;;;;;;8.20;63.30;;;3.40;100.00;95038.16;4972347;28;20018;-48
2023/04/20 04:10:52;;;;;;;;;;;8.30;63.30;;;3.42;100.00;95030.84;4966503;28;19971;-51
2023/04/20 04:13:18;;;;;;;;;;;8.30;63.30;;;3.46;100.00;95039.06;4964920;28;19920;-53
2023/04/20 04:15:43;;;;;;;;;;;8.30;63.30;;;3.50;100.00;95039.41;4970697;28;19985;-53
2023/04/20 04:18:09;;;;;;;;;;;8.30;63.30;;;3.50;100.00;95039.41;4968897;28;19914;-48
2023/04/20 04:20:35;;;;;;;;;;;8.30;63.40;;;3.49;100.00;95038.59;4967331;28;19913;-50
2023/04/20 04:23:01;;;;;;;;;;;8.30;63.30;;;3.53;100.00;95028.41;4968662;28;20245;-56
2023/04/20 04:25:27;;;;;;;;;;;8.40;63.40;;;3.54;100.00;95022.09;4969232;28;19979;-49
2023/04/20 04:27:53;;;;;;;;;;;8.30;63.30;;;3.51;100.00;95022.56;4968987;28;20360;-48
2023/04/20 04:30:19;;;;;;;;;;;8.30;63.30;;;3.56;100.00;95033.19;4967514;28;20319;-53
2023/04/20 04:32:45;;;;;;;;;;;8.30;63.30;;;3.51;100.00;95025.19;4975314;28;19914;-50
2023/04/20 04:35:13;;;;;;;;;;;8.30;63.40;;;3.41;100.00;95023.94;4962688;28;19918;-48
2023/04/20 04:37:39;;;;;;;;;;;8.30;63.30;;;3.44;100.00;95020.84;4967267;28;20384;-47
2023/04/20 04:40:08;;;;;;;;;;;8.30;63.30;;;3.46;100.00;95021.44;4965849;28;19940;-47
2023/04/20 04:42:35;;;;;;;;;;;8.30;63.30;;;3.37;100.00;95024.66;4969206;28;19914;-48
2023/04/20 04:45:03;;;;;;;;;;;8.30;63.40;;;3.39;100.00;95025.25;4967215;28;20004;-50
2023/04/20 04:47:40;;;;;;;;;;;8.30;63.30;;;3.32;100.00;95030.63;4964082;28;19932;-47
2023/04/20 04:50:09;;;;;;;;;;;8.30;63.30;;;3.36;100.00;95028.34;4966881;28;20284;-47
2023/04/20 04:52:35;;;;;;;;;;;8.20;63.30;;;3.36;100.00;95015.16;4965410;28;19918;-50
2023/04/20 04:55:06;;;;;;;;;;;8.20;63.30;;;3.33;100.00;95002.47;4964168;28;20102;-51
2023/04/20 04:57:32;;;;;;;;;;;8.30;63.40;;;3.32;100.00;95000.84;4964831;28;20389;-55
2023/04/20 04:59:58;;;;;;;;;;;8.30;63.40;;;3.31;100.00;95007.16;4966099;28;19921;-47
2023/04/20 05:02:24;;;;;;;;;;;8.20;63.30;;;3.29;100.00;95017.13;4964455;28;19921;-52
2023/04/20 05:04:49;;;;;;;;;;;8.30;63.40;;;3.34;100.00;95011.97;4972434;28;19910;-48
2023/04/20 05:07:16;;;;;;;;;;;8.20;63.40;;;3.35;100.00;95011.72;4966480;28;19918;-48
2023/04/20 05:09:42;;;;;;;;;;;8.20;63.40;;;3.26;100.00;95010.50;4963262;28;19932;-52
2023/04/20 05:12:08;;;;;;;;;;;8.20;63.40;;;3.34;100.00;95007.50;4964878;28;19917;-54
2023/04/20 05:14:34;;;;;;;;;;;8.20;63.40;;;3.31;100.00;95001.91;4969439;28;19914;-48
2023/04/20 05:17:00;;;;;;;;;;;8.20;63.40;;;3.32;100.00;95006.13;4965604;28;20003;-53
2023/04/20 05:19:26;;;;;;;;;;;8.30;63.40;;;3.34;100.00;95011.97;4963391;28;19910;-47
2023/04/20 05:21:52;;;;;;;;;;;8.30;63.40;;;3.29;100.00;95003.94;4966714;28;20148;-48
2023/04/20 05:24:18;;;;;;;;;;;8.30;63.40;;;3.25;100.00;95001.78;4960910;28;20677;-51
2023/04/20 05:26:45;;;;;;;;;;;8.30;63.40;;;3.22;100.00;95001.44;4965981;28;19925;-49
2023/04/20 05:29:11;;;;;;;;;;;8.30;63.40;;;3.25;100.00;95003.63;4971010;28;19925;-51
2023/04/20 05:31:37;;;;;;;;;;;8.30;63.40;;;3.23;100.00;95006.50;4964907;28;19910;-48
2023/04/20 05:34:02;;;;;;;;;;;8.30;63.50;;;3.21;100.00;95005.13;4971741;28;19932;-48
2023/04/20 05:36:29;;;;;;;;;;;8.30;63.40;;;3.28;100.00;95008.41;4963995;28;19979;-57
2023/04/20 05:38:55;;;;;;;;;;;8.30;63.50;;;3.35;100.00;95001.19;4969469;28;20387;-47
2023/04/20 05:41:27;;;;;;;;;;;8.30;63.50;;;3.36;100.00;95004.63;4965473;28;19960;-52
2023/04/20 05:43:54;;;;;;;;;;;8.30;63.50;;;3.43;100.00;95010.56;4968601;28;20378;-51
2023/04/20 05:46:20;;;;;;;;;;;8.30;63.50;;;3.44;100.00;95005.06;4971500;28;19965;-51
2023/04/20 05:48:46;;;;;;;;;;;8.40;63.60;;;3.45;100.00;95003.25;4967113;28;19913;-49
2023/04/20 05:51:12;;;;;;;;;;;8.40;63.60;;;3.42;100.00;95003.72;4967467;28;19949;-48
2023/04/20 05:53:38;;;;;;;;;;;8.40;63.60;;;3.39;100.00;95001.53;4968774;28;20731;-47
2023/04/20 05:56:05;;;;;;;;;;;8.40;63.50;;;3.25;100.00;95007.03;4968318;28;20004;-48
2023/04/20 05:58:33;;;;;;;;;;;8.40;63.50;;;3.36;100.00;95007.28;4966327;28;19918;-49
2023/04/20 06:01:00;;;;;;;;;;;8.40;63.50;;;3.44;100.00;95018.22;4969303;28;19949;-50
2023/04/20 06:03:25;;;;;;;;;;;8.40;63.60;;;3.37;100.00;95022.03;4991186;23;19931;-54
2023/04/20 06:05:52;;;;;;;;;;;8.40;63.50;;;3.37;100.00;95011.50;4974678;28;20341;-53
2023/04/20 06:08:18;;;;;;;;;;;8.40;63.50;;;3.43;100.00;95008.72;4986411;28;19909;-48
2023/04/20 06:10:44;;;;;;;;;;;8.40;63.50;;;3.39;100.00;95014.72;4989095;28;19963;-50
2023/04/20 06:13:10;;;;;;;;;;;8.40;63.50;;;3.40;100.00;95016.28;4987120;28;19917;-48
2023/04/20 06:15:35;;;;;;;;;;;8.40;63.50;;;3.40;100.00;95018.94;4948838;28;28448;-50
2023/04/20 06:18:01;;;;;;;;;;;8.40;63.50;;;3.42;100.00;95009.78;4967072;28;19920;-48
2023/04/20 06:20:27;;;;;;;;;;;8.40;63.40;;;3.42;100.00;95003.72;4982799;28;19917;-50
2023/04/20 06:22:53;;;;;;;;;;;8.40;63.40;;;3.41;100.00;94996.81;4981069;28;19913;-48
2023/04/20 06:25:19;;;;;;;;;;;8.50;63.50;;;3.41;100.00;95000.25;4982310;28;19925;-51
2023/04/20 06:27:45;;;;;;;;;;;8.50;63.50;;;3.42;100.00;95006.34;4969021;28;20304;-48
2023/04/20 06:30:12;;;;;;;;;;;8.50;63.50;;;3.37;100.00;95009.66;4986087;28;19979;-49
2023/04/20 06:32:37;;;;;;;;;;;8.50;63.50;;;3.37;100.00;95011.50;4981550;28;19943;-49
2023/04/20 06:35:07;;;;;;;;;;;8.50;63.40;;;3.31;100.00;95005.31;4983845;28;19909;-48
2023/04/20 06:37:35;;;;;;;;;;;8.50;63.40;;;3.21;100.00;95011.19;4982234;28;20004;-50
2023/04/20 06:40:04;;;;;;;;;;;8.50;63.30;;;3.04;100.00;95014.75;4981909;28;19967;-52
2023/04/20 06:42:30;;;;;;;;;;;8.40;63.20;;;3.03;100.00;95015.78;4982498;28;19917;-52
2023/04/20 06:44:55;;;;;;;;;;;8.40;63.10;;;3.12;100.00;95009.94;4983073;28;19963;-49
2023/04/20 06:47:21;;;;;;;;;;;8.40;63.10;;;3.14;100.00;95009.72;4982985;28;19909;-53
2023/04/20 06:49:47;;;;;;;;;;;8.50;63.10;;;3.11;100.00;95012.81;4985602;28;19913;-51
2023/04/20 06:52:13;;;;;;;;;;;8.50;63.10;;;3.14;100.00;95009.72;4961967;28;19927;-49
2023/04/20 06:54:38;;;;;;;;;;;8.50;63.10;;;3.21;100.00;95013.03;4983589;28;19945;-55
2023/04/20 06:57:04;;;;;;;;;;;8.50;63.10;;;3.17;100.00;95014.53;4982065;28;19932;-54
2023/04/20 06:59:30;;;;;;;;;;;8.60;63.10;;;3.06;100.00;95007.44;4966597;28;19910;-54
2023/04/20 07:01:55;;;;;;;;;;;8.60;63.00;;;3.10;100.00;95012.00;4984436;28;19913;-52
2023/04/20 07:04:21;;;;;;;;;;;8.60;62.90;;;3.19;100.00;95001.91;4984022;28;19918;-54
2023/04/20 07:06:48;;;;;;;;;;;8.70;62.90;;;3.27;100.00;94995.50;4982488;28;20000;-54
2023/04/20 07:09:13;;;;;;;;;;;8.70;63.00;;;3.38;100.00;94998.09;4978770;28;19913;-53
2023/04/20 07:11:39;;;;;;;;;;;8.80;62.90;;;3.38;100.00;95007.81;4968333;28;19921;-50
2023/04/20 07:14:05;;;;;;;;;;;8.80;63.60;;;3.41;100.00;95010.78;4979831;28;20004;-53
2023/04/20 07:16:30;;;;;;;;;;;8.90;62.90;;;3.43;100.00;95002.66;4981921;28;19913;-47
2023/04/20 07:18:56;;;;;;;;;;;8.90;62.80;;;3.48;100.00;94994.88;4981552;28;20004;-52
2023/04/20 07:21:22;;;;;;;;;;;9.00;62.70;;;3.57;100.00;94993.44;4980055;28;19909;-52
2023/04/20 07:23:48;;;;;;;;;;;9.20;62.60;;;3.67;100.00;95011.31;4981026;28;19917;-54
2023/04/20 07:26:14;;;;;;;;;;;9.30;63.20;;;3.78;100.00;95009.66;4981189;28;20315;-56
2023/04/20 07:28:40;;;;;;;;;;;9.40;62.40;;;3.79;100.00;95009.41;4982452;28;19913;-49
2023/04/20 07:31:05;;;;;;;;;;;9.40;62.30;;;3.79;100.00;95008.59;4982629;28;19913;-52
2023/04/20 07:33:31;;;;;;;;;;;9.40;62.30;;;3.43;100.00;95008.72;4986572;28;19951;-51
2023/04/20 07:35:57;;;;;;;;;;;9.40;62.20;;;3.57;100.00;94996.06;4984380;28;19910;-52
2023/04/20 07:38:23;;;;;;;;;;;9.50;62.10;;;3.73;100.00;94991.94;4958823;28;20300;-54
2023/04/20 07:40:49;;;;;;;;;;;9.60;62.10;;;3.79;100.00;95006.78;4985080;28;19956;-51
2023/04/20 07:43:14;;;;;;;;;;;9.60;62.00;;;3.88;100.00;95015.09;4982335;28;19910;-52
2023/04/20 07:45:40;;;;;;;;;;;9.60;62.00;;;3.93;100.00;95012.56;4982156;28;19910;-52
2023/04/20 07:48:08;;;;;;;;;;;9.60;62.00;;;3.89;100.00;95004.34;4984177;28;20318;-51
2023/04/20 07:50:34;;;;;;;;;;;9.70;62.10;;;3.98;100.00;95001.28;4979885;28;19983;-55
2023/04/20 07:53:01;;;;;;;;;;;9.80;62.00;;;4.12;100.00;95011.31;4978440;28;20076;-53
2023/04/20 07:55:26;;;;;;;;;;;9.80;61.90;;;4.20;100.00;95023.31;4980994;28;19909;-54
2023/04/20 07:57:52;;;;;;;;;;;9.80;62.00;;;4.21;100.00;95024.13;4983299;28;19933;-54
2023/04/20 08:00:18;;;;;;;;;;;9.80;61.80;;;4.31;100.00;95017.16;4976388;28;19959;-51
2023/04/20 08:02:44;;;;;;;;;;;9.90;62.00;;;4.21;100.00;95003.81;4975744;28;19924;-57
2023/04/20 08:05:10;;;;;;;;;;;9.90;62.00;;;4.26;100.00;95009.19;4979407;28;19917;-54
2023/04/20 08:07:36;;;;;;;;;;;10.00;61.80;;;4.39;100.00;95016.00;4978054;28;20016;-53
2023/04/20 08:10:03;;;;;;;;;;;10.10;61.70;;;4.53;100.00;95033.06;4980939;28;20439;-55
2023/04/20 08:12:28;;;;;;;;;;;10.00;61.60;;;4.57;100.00;95036.03;4979103;28;20014;-54
2023/04/20 08:14:59;;;;;;;;;;;10.10;61.90;;;4.48;100.00;95019.81;4980059;28;20008;-54
2023/04/20 08:17:25;;;;;;;;;;;10.10;61.90;;;4.52;100.00;94999.84;4979708;28;20011;-52
2023/04/20 08:19:51;;;;;;;;;;;10.20;61.70;;;4.57;100.00;95001.75;4980016;28;19966;-53
2023/04/20 08:22:17;;;;;;;;;;;10.30;61.50;;;4.63;100.00;95014.75;4980721;28;20274;-56
2023/04/20 08:24:43;;;;;;;;;;;10.30;61.20;;;4.73;100.00;95011.50;4978829;28;19910;-49
2023/04/20 08:27:09;;;;;;;;;;;10.40;61.30;;;4.81;100.00;95016.34;4980331;28;19917;-53
2023/04/20 08:29:35;;;;;;;;;;;10.40;61.40;;;4.86;100.00;95005.09;4976534;28;20418;-55
2023/04/20 08:32:02;;;;;;;;;;;10.40;61.30;;;4.85;99.73;94993.72;4979197;28;19917;-57
2023/04/20 08:34:28;;;;;;;;;;;10.50;61.30;;;4.76;99.34;94989.88;4978621;28;19913;-55
2023/04/20 08:36:54;;;;;;;;;;;10.60;61.00;;;4.78;99.80;94987.81;4966377;28;19960;-49
2023/04/20 08:39:22;;;;;;;;;;;10.70;60.90;;;4.80;99.73;94984.94;4979980;28;20385;-53
2023/04/20 08:41:52;;;;;;;;;;;10.70;60.70;;;4.83;99.67;94987.09;4978213;28;19909;-55
2023/04/20 08:44:18;;;;;;;;;;;10.80;61.50;;;4.81;100.00;94989.16;4982655;28;19909;-55
2023/04/20 08:46:47;;;;;;;;;;;10.80;60.60;;;4.79;99.58;94986.75;4977524;28;19909;-54
2023/04/20 08:49:18;;;;;;;;;;;10.90;60.40;;;4.92;100.00;94987.47;4986380;28;20705;-55
2023/04/20 08:51:46;;;;;;;;;;;11.00;60.40;;;5.01;99.18;94978.09;4978102;28;20537;-52
2023/04/20 08:54:13;;;;;;;;;;;11.10;60.20;;;4.95;98.68;94979.88;4976015;28;19909;-56
2023/04/20 08:56:44;;;;;;;;;;;11.20;60.10;;;4.96;98.42;94970.91;4963079;28;19967;-52
2023/04/20 08:59:12;;;;;;;;;;;11.30;60.00;;;5.05;98.43;94971.28;4982183;28;20012;-52
2023/04/20 09:01:40;;;;;;;;;;;11.40;59.80;;;5.15;97.45;94970.63;4981829;28;19921;-51
2023/04/20 09:04:25;;;;;;;;;;;11.70;59.70;;;5.39;97.30;94971.16;4976220;28;19924;-54
2023/04/20 09:06:54;;;;;;;;;;;11.90;59.50;;;5.57;97.00;94976.91;4975722;28;19918;-52
2023/04/20 09:09:24;;;;;;;;;;;12.00;59.50;;;5.68;96.16;94962.00;4980489;28;19917;-52
2023/04/20 09:12:19;;;;;;;;;;;12.20;59.30;;;5.82;94.52;94957.09;4967148;28;20400;-53
2023/04/20 09:14:47;;;;;;;;;;;12.60;59.00;;;5.89;94.49;94962.19;4966490;28;20675;-49
2023/04/20 09:17:16;;;;;;;;;;;13.10;58.60;;;5.84;92.10;94954.22;4981376;28;19914;-54
2023/04/20 09:19:52;;;;;;;;;;;13.50;58.10;;;5.99;90.94;94949.13;4987421;28;19909;-56
2023/04/20 09:22:32;;;;;;;;;;;13.70;57.60;;;6.02;91.35;94946.75;4985278;28;19936;-55
2023/04/20 09:25:00;;;;;;;;;;;13.80;57.40;;;6.08;91.40;94947.59;4982519;28;19913;-54
2023/04/20 09:27:26;;;;;;;;;;;13.80;57.30;;;5.96;90.58;94947.75;4983738;28;20249;-56
2023/04/20 09:29:59;;;;;;;;;;;13.70;57.30;;;5.88;91.03;94948.16;4982301;28;19917;-52
2023/04/20 09:32:27;;;;;;;;;;;13.50;57.30;;;6.12;92.23;94947.91;4984063;28;19922;-54
2023/04/20 09:34:53;;;;;;;;;;;13.30;57.40;;;6.18;91.51;94949.53;4984642;28;19948;-52
2023/04/20 09:37:21;;;;;;;;;;;13.20;57.50;;;5.87;88.86;94943.94;4978406;28;19921;-52
2023/04/20 09:39:46;;;;;;;;;;;13.10;57.60;;;5.82;91.51;94946.53;4985945;28;19955;-52
2023/04/20 09:42:15;;;;;;;;;;;12.90;57.60;;;5.82;92.94;94941.25;4981651;28;19921;-51
2023/04/20 09:44:42;;;;;;;;;;;12.90;57.60;;;5.94;92.75;94947.19;4983115;28;19913;-51
2023/04/20 09:47:20;;;;;;;;;;;12.80;57.70;;;5.73;92.83;94946.16;4979395;28;19909;-50
2023/04/20 09:49:49;;;;;;;;;;;12.60;57.70;;;5.49;94.36;94935.09;4978771;28;19910;-52
2023/04/20 09:52:18;;;;;;;;;;;12.50;57.80;;;5.54;94.88;94940.44;4984374;28;19909;-54
2023/04/20 09:54:46;;;;;;;;;;;12.50;57.80;;;5.54;93.96;94944.91;4976837;28;19916;-56
2023/04/20 09:57:13;;;;;;;;;;;12.50;57.80;;;5.72;95.43;94949.06;4971096;28;20486;-54
2023/04/20 09:59:43;;;;;;;;;;;12.60;58.00;;;5.74;94.20;94945.16;4952362;28;19917;-52
2023/04/20 10:02:11;;;;;;;;;;;12.60;58.00;;;5.87;93.60;94951.88;4970653;28;20028;-50
2023/04/20 10:04:37;;;;;;;;;;;12.50;58.00;;;6.05;92.71;94957.84;4950692;28;20028;-48
2023/04/20 10:07:05;;;;;;;;;;;12.40;58.20;;;6.23;92.68;94963.56;4982440;28;19951;-54
2023/04/20 10:09:33;;;;;;;;;;;12.40;58.30;;;6.15;91.11;94956.13;4981335;28;19909;-55
2023/04/20 10:12:09;;;;;;;;;;;12.40;58.30;;;6.18;91.33;94952.97;4980401;28;19914;-56
2023/04/20 10:14:34;;;;;;;;;;;12.50;58.30;;;6.09;92.03;94956.34;4985698;28;19916;-56
2023/04/20 10:17:07;;;;;;;;;;;12.50;58.20;;;6.10;90.47;94950.00;4984440;28;20366;-55
2023/04/20 10:19:43;;;;;;;;;;;12.30;58.20;;;5.81;90.74;94944.94;4983825;28;19910;-56
2023/04/20 10:22:28;;;;;;;;;;;12.20;58.20;;;5.56;91.89;94934.91;4986976;28;19913;-53
2023/04/20 10:24:53;;;;;;;;;;;12.00;58.20;;;5.26;93.20;94928.22;4980999;28;19918;-50
2023/04/20 10:27:21;;;;;;;;;;;11.90;58.20;;;5.22;94.07;94935.06;4982254;28;20318;-54
2023/04/20 10:29:47;;;;;;;;;;;11.70;58.10;;;5.33;94.11;94933.34;4963061;28;19944;-52
2023/04/20 10:32:27;;;;;;;;;;;11.60;58.30;;;5.36;94.51;94929.41;4969174;28;19909;-49
2023/04/20 10:35:08;;;;;;;;;;;11.40;58.50;;;5.45;94.98;94933.19;4977724;28;19914;-51
2023/04/20 10:37:50;;;;;;;;;;;11.30;58.60;;;5.36;95.00;94934.69;4983491;28;19947;-52
2023/04/20 10:40:25;;;;;;;;;;;11.30;58.80;;;5.23;95.81;94941.13;4979893;28;19917;-51
2023/04/20 10:42:52;;;;;;;;;;;11.20;58.80;;;5.25;96.98;94946.97;4982760;28;20734;-55
2023/04/20 10:45:17;;;;;;;;;;;11.10;58.90;;;5.19;97.26;94942.69;4969011;28;19915;-56
2023/04/20 10:47:44;;;;;;;;;;;11.10;59.00;;;5.05;99.40;94945.69;4985318;28;19909;-53
2023/04/20 10:50:12;;;;;;;;;;;11.00;59.00;;;4.96;100.00;94943.72;4985998;28;19921;-51
2023/04/20 10:52:41;;;;;;;;;;;10.90;59.00;;;4.82;100.00;94941.41;4981046;28;20010;-54
2023/04/20 10:55:23;;;;;;;;;;;10.90;59.10;;;4.93;100.00;94926.53;4960981;28;20008;-51
2023/04/20 10:57:50;;;;;;;;;;;10.90;59.10;;;5.20;100.00;94915.22;4983197;28;22542;-52
2023/04/20 11:00:22;;;;;;;;;;;11.20;59.10;;;5.51;100.00;94919.78;4980697;28;19909;-48
2023/04/20 11:02:50;;;;;;;;;;;11.50;59.10;;;5.77;100.00;94923.50;4982646;28;19937;-53
2023/04/20 11:05:18;;;;;;;;;;;11.70;59.00;;;5.93;98.85;94927.09;4977610;28;20340;-48
2023/04/20 11:07:54;;;;;;;;;;;11.90;59.00;;;5.95;96.75;94924.19;4982944;28;19910;-51
2023/04/20 11:10:23;;;;;;;;;;;12.00;58.90;;;6.01;96.36;94921.34;4978518;28;19937;-49
2023/04/20 11:12:50;;;;;;;;;;;12.10;58.90;;;6.00;95.08;94922.41;4984060;28;19918;-51
2023/04/20 11:15:17;;;;;;;;;;;12.10;58.80;;;5.75;97.37;94915.00;4987104;28;19909;-48
2023/04/20 11:17:43;;;;;;;;;;;12.20;58.60;;;5.78;96.81;94906.59;4983049;28;19968;-50
2023/04/20 11:20:15;;;;;;;;;;;12.30;58.50;;;5.93;95.93;94905.97;4980667;28;19960;-52
2023/04/20 11:22:43;;;;;;;;;;;12.40;58.40;;;5.88;95.34;94911.16;4982283;28;19917;-52
2023/04/20 11:25:11;;;;;;;;;;;12.40;58.30;;;5.93;95.58;94911.25;4982859;28;20304;-48